Time;durP1;ratioP1;P1;durP2;ratioP2;P2;SDS_P1;SDS_P2;PMS_P1;PMS_P2;Temp;Humidity;BMP_temperature;BMP_pressure;BME280_temperature;BME280_humidity;BME280_pressure;Samples;Min_cycle;Max_cycle;Signal;HPM_P1;HPM_P2
2022/09/22 00:01:52;;;;;;;9.18;4.78;;;9.40;99.90;;;;;;5052183;28;20044;-59
2022/09/22 00:04:17;;;;;;;9.25;4.68;;;9.40;99.90;;;;;;5059642;28;20111;-59
2022/09/22 00:06:50;;;;;;;7.57;5.10;;;9.30;99.90;;;;;;5048866;28;20468;-58
2022/09/22 00:09:18;;;;;;;8.05;4.70;;;9.10;99.90;;;;;;5063919;28;20051;-59
2022/09/22 00:11:49;;;;;;;7.60;4.93;;;9.20;99.90;;;;;;5049303;28;20091;-59
2022/09/22 00:14:19;;;;;;;7.95;4.80;;;9.10;99.90;;;;;;5059022;28;20043;-59
2022/09/22 00:16:50;;;;;;;9.35;5.35;;;9.10;99.90;;;;;;5054510;28;20040;-60
2022/09/22 00:19:22;;;;;;;9.05;6.28;;;9.00;99.90;;;;;;5051520;28;20309;-59
2022/09/22 00:21:48;;;;;;;9.98;6.10;;;8.90;99.90;;;;;;5058378;28;20137;-59
2022/09/22 00:24:16;;;;;;;10.13;6.38;;;9.00;99.90;;;;;;5048611;28;20049;-59
2022/09/22 00:26:43;;;;;;;10.82;6.50;;;9.00;99.90;;;;;;5063411;28;20106;-59
2022/09/22 00:29:10;;;;;;;10.25;6.30;;;9.00;99.90;;;;;;5048504;28;20524;-59
2022/09/22 00:31:37;;;;;;;9.07;6.32;;;8.90;99.90;;;;;;5060292;28;20068;-59
2022/09/22 00:34:03;;;;;;;10.25;7.15;;;8.90;99.90;;;;;;5052206;28;20040;-60
2022/09/22 00:36:30;;;;;;;9.05;7.13;;;9.00;99.90;;;;;;5055474;28;20440;-59
2022/09/22 00:38:56;;;;;;;11.10;7.28;;;9.00;99.90;;;;;;5055848;28;20049;-59
2022/09/22 00:41:26;;;;;;;10.25;7.10;;;8.90;99.90;;;;;;5050470;28;20059;-59
2022/09/22 00:44:20;;;;;;;9.88;6.57;;;8.90;99.90;;;;;;5062119;28;20045;-59
2022/09/22 00:46:51;;;;;;;11.02;6.65;;;9.00;99.90;;;;;;5049596;28;20033;-59
2022/09/22 00:49:18;;;;;;;10.77;6.75;;;9.00;99.90;;;;;;5056567;28;20550;-59
2022/09/22 00:51:44;;;;;;;10.80;6.20;;;9.00;99.90;;;;;;5054753;28;20044;-59
2022/09/22 00:54:17;;;;;;;9.30;6.70;;;9.30;99.90;;;;;;5053522;28;20399;-60
2022/09/22 00:56:51;;;;;;;11.55;6.75;;;9.10;99.90;;;;;;5058825;28;20052;-58
2022/09/22 00:59:20;;;;;;;9.30;6.30;;;9.10;99.90;;;;;;5029191;28;20071;-59
2022/09/22 01:01:47;;;;;;;10.05;6.80;;;9.10;99.90;;;;;;5046597;28;20411;-59
2022/09/22 01:04:14;;;;;;;10.50;6.22;;;9.00;99.90;;;;;;5060626;28;20064;-58
2022/09/22 01:06:40;;;;;;;10.63;6.10;;;8.90;99.90;;;;;;5049740;28;20515;-59
2022/09/22 01:09:07;;;;;;;11.30;6.35;;;8.80;99.90;;;;;;5055354;28;20091;-59
2022/09/22 01:11:33;;;;;;;11.93;6.50;;;8.70;99.90;;;;;;5054334;28;20376;-59
2022/09/22 01:14:13;;;;;;;10.25;6.68;;;8.60;99.90;;;;;;5051055;28;20490;-59
2022/09/22 01:17:05;;;;;;;9.82;6.20;;;8.70;99.90;;;;;;5061840;28;20383;-59
2022/09/22 01:20:08;;;;;;;9.52;6.00;;;8.50;99.90;;;;;;5048608;28;20068;-59
2022/09/22 01:22:51;;;;;;;11.57;6.07;;;8.50;99.90;;;;;;5052751;28;20428;-59
2022/09/22 01:25:26;;;;;;;11.07;6.35;;;8.50;99.90;;;;;;5058164;28;20058;-59
2022/09/22 01:28:16;;;;;;;10.65;5.82;;;8.50;99.90;;;;;;5046068;28;20079;-58
2022/09/22 01:30:45;;;;;;;11.05;5.72;;;8.50;99.90;;;;;;5058180;28;20041;-59
2022/09/22 01:33:17;;;;;;;8.77;5.10;;;8.50;99.90;;;;;;5052135;28;20047;-59
2022/09/22 01:35:59;;;;;;;7.43;5.68;;;8.50;99.90;;;;;;5052840;28;20041;-59
2022/09/22 01:38:36;;;;;;;11.30;5.45;;;8.50;99.90;;;;;;5059391;28;20040;-58
2022/09/22 01:41:12;;;;;;;9.73;5.45;;;8.50;99.90;;;;;;5046189;28;20090;-59
2022/09/22 01:43:55;;;;;;;9.38;5.63;;;8.50;99.90;;;;;;5057851;28;20036;-59
2022/09/22 01:46:29;;;;;;;10.30;5.25;;;8.40;99.90;;;;;;5053103;28;20040;-59
2022/09/22 01:48:59;;;;;;;11.43;5.65;;;8.40;99.90;;;;;;5050477;28;20041;-58
2022/09/22 01:51:33;;;;;;;9.02;5.32;;;8.40;99.90;;;;;;5058921;28;20128;-59
2022/09/22 01:54:06;;;;;;;9.82;5.88;;;8.40;99.90;;;;;;5045364;28;20044;-58
2022/09/22 01:56:35;;;;;;;8.57;5.45;;;8.40;99.90;;;;;;5060773;28;20033;-59
2022/09/22 01:59:03;;;;;;;10.82;5.28;;;8.40;99.90;;;;;;5048862;28;20107;-59
2022/09/22 02:01:46;;;;;;;10.20;5.82;;;8.30;99.90;;;;;;5055696;28;20051;-60
2022/09/22 02:04:20;;;;;;;7.60;5.50;;;8.30;99.90;;;;;;5055968;28;20466;-59
2022/09/22 02:07:01;;;;;;;9.48;5.60;;;8.30;99.90;;;;;;5048563;28;20450;-58
2022/09/22 02:09:32;;;;;;;10.30;5.40;;;8.30;99.90;;;;;;5061273;28;20048;-59
2022/09/22 02:11:58;;;;;;;9.38;6.03;;;8.30;99.90;;;;;;5047995;28;20047;-59
2022/09/22 02:14:25;;;;;;;11.65;6.28;;;8.30;99.90;;;;;;5134219;22;20334;-59
2022/09/22 02:16:52;;;;;;;8.88;6.25;;;8.30;99.90;;;;;;5053357;28;20102;-59
2022/09/22 02:19:27;;;;;;;11.15;6.60;;;8.20;99.90;;;;;;5054417;28;20099;-59
2022/09/22 02:21:53;;;;;;;10.30;6.45;;;8.20;99.90;;;;;;5058455;28;20505;-59
2022/09/22 02:24:33;;;;;;;11.55;6.47;;;8.30;99.90;;;;;;5047644;28;20419;-59
2022/09/22 02:27:35;;;;;;;9.98;6.85;;;8.30;99.90;;;;;;5063134;28;20078;-59
2022/09/22 02:30:10;;;;;;;11.95;6.35;;;8.30;99.90;;;;;;5053711;28;20525;-59
2022/09/22 02:32:39;;;;;;;11.45;7.00;;;8.20;99.90;;;;;;5052086;28;20040;-59
2022/09/22 02:35:06;;;;;;;9.45;6.30;;;8.20;99.90;;;;;;5058495;28;20101;-59
2022/09/22 02:37:47;;;;;;;13.52;6.90;;;8.30;99.90;;;;;;5048290;28;20413;-59
2022/09/22 02:40:19;;;;;;;12.90;6.53;;;8.30;99.90;;;;;;5047675;28;20052;-60
2022/09/22 02:43:03;;;;;;;10.88;5.93;;;8.30;99.90;;;;;;5058443;28;20514;-60
2022/09/22 02:45:36;;;;;;;10.45;6.05;;;8.40;99.90;;;;;;5048320;28;20041;-59
2022/09/22 02:48:09;;;;;;;7.75;5.63;;;8.40;99.90;;;;;;5043663;28;20048;-59
2022/09/22 02:50:35;;;;;;;9.73;6.00;;;8.40;99.90;;;;;;5048257;28;20446;-59
2022/09/22 02:53:08;;;;;;;6.65;5.43;;;8.40;99.90;;;;;;5060811;28;20447;-59
2022/09/22 02:55:34;;;;;;;9.23;6.13;;;8.40;99.90;;;;;;5046142;28;20118;-59
2022/09/22 02:58:00;;;;;;;8.77;5.82;;;8.30;99.90;;;;;;5057926;28;20041;-59
2022/09/22 03:00:26;;;;;;;10.45;6.05;;;8.30;99.90;;;;;;5048695;28;20041;-59
2022/09/22 03:02:52;;;;;;;9.05;6.30;;;8.30;99.90;;;;;;5053493;28;20147;-59
2022/09/22 03:05:17;;;;;;;8.35;6.70;;;8.30;99.90;;;;;;5054051;28;20044;-60
2022/09/22 03:07:43;;;;;;;9.27;6.53;;;8.40;99.90;;;;;;5049839;28;20049;-59
2022/09/22 03:10:09;;;;;;;9.13;6.45;;;8.20;99.90;;;;;;5057186;28;20048;-60
2022/09/22 03:12:35;;;;;;;8.05;6.20;;;8.30;99.90;;;;;;5045940;28;20096;-59
2022/09/22 03:15:00;;;;;;;15.75;5.82;;;8.30;99.90;;;;;;5061106;28;20088;-58
2022/09/22 03:17:26;;;;;;;16.05;6.63;;;8.30;99.90;;;;;;5044845;28;20117;-59
2022/09/22 03:19:51;;;;;;;10.35;6.85;;;8.10;99.90;;;;;;5057941;28;20384;-60
2022/09/22 03:22:17;;;;;;;10.00;6.90;;;8.10;99.90;;;;;;5048577;28;20048;-58
2022/09/22 03:24:43;;;;;;;8.70;5.85;;;8.10;99.90;;;;;;5053718;28;20049;-60
2022/09/22 03:27:08;;;;;;;8.90;6.75;;;8.10;99.90;;;;;;5054829;28;20041;-59
2022/09/22 03:29:34;;;;;;;11.05;6.53;;;8.10;99.90;;;;;;5049837;28;20488;-59
2022/09/22 03:32:00;;;;;;;9.35;6.47;;;8.00;99.90;;;;;;5057331;28;20041;-59
2022/09/22 03:34:25;;;;;;;12.15;7.15;;;7.90;99.90;;;;;;5045220;28;20563;-60
2022/09/22 03:36:51;;;;;;;10.48;7.25;;;8.10;99.90;;;;;;5062059;28;20044;-58
2022/09/22 03:39:16;;;;;;;9.63;6.50;;;8.00;99.90;;;;;;5049518;28;20040;-59
2022/09/22 03:41:42;;;;;;;9.45;6.60;;;8.00;99.90;;;;;;5061413;28;20380;-59
2022/09/22 03:44:08;;;;;;;8.73;6.47;;;8.00;99.90;;;;;;5053132;28;20649;-59
2022/09/22 03:46:33;;;;;;;9.90;6.50;;;7.90;99.90;;;;;;5056152;28;20037;-59
2022/09/22 03:48:59;;;;;;;11.48;6.30;;;7.70;99.90;;;;;;5057231;28;20040;-60
2022/09/22 03:51:25;;;;;;;8.80;6.30;;;7.70;99.90;;;;;;5051541;28;20443;-59
2022/09/22 03:53:50;;;;;;;7.65;5.82;;;7.70;99.90;;;;;;5061334;28;20067;-60
2022/09/22 03:56:16;;;;;;;8.13;6.70;;;7.80;99.90;;;;;;5048782;28;20056;-59
2022/09/22 03:58:42;;;;;;;8.77;6.53;;;7.80;99.90;;;;;;5062656;28;20049;-59
2022/09/22 04:01:10;;;;;;;9.20;6.53;;;7.70;99.90;;;;;;5049696;28;20202;-59
2022/09/22 04:03:36;;;;;;;9.20;6.88;;;7.60;99.90;;;;;;5059878;28;20446;-59
2022/09/22 04:06:03;;;;;;;12.05;6.40;;;7.70;99.90;;;;;;5053526;28;20032;-59
2022/09/22 04:08:28;;;;;;;7.03;6.20;;;7.60;99.90;;;;;;5054270;28;20044;-59
2022/09/22 04:10:56;;;;;;;8.05;6.20;;;7.60;99.90;;;;;;5057772;28;20494;-59
2022/09/22 04:13:22;;;;;;;8.25;6.18;;;7.70;99.90;;;;;;5051747;28;20041;-59
2022/09/22 04:15:48;;;;;;;8.27;5.88;;;7.60;99.90;;;;;;5061486;28;20064;-59
2022/09/22 04:18:14;;;;;;;8.90;5.95;;;7.70;99.90;;;;;;5047113;28;20071;-60
2022/09/22 04:20:44;;;;;;;10.00;5.55;;;7.70;99.90;;;;;;5063119;28;20044;-60
2022/09/22 04:23:11;;;;;;;7.63;5.65;;;7.70;99.90;;;;;;5050182;28;20044;-59
2022/09/22 04:25:37;;;;;;;7.65;6.07;;;7.70;99.90;;;;;;5059520;28;20368;-59
2022/09/22 04:28:06;;;;;;;7.15;6.38;;;7.60;99.90;;;;;;5054067;28;20078;-59
2022/09/22 04:30:33;;;;;;;8.23;6.32;;;7.60;99.90;;;;;;5053774;28;20049;-59
2022/09/22 04:32:59;;;;;;;6.93;5.80;;;7.60;99.90;;;;;;5058191;28;20043;-59
2022/09/22 04:35:27;;;;;;;7.85;6.50;;;7.60;99.90;;;;;;5049466;28;20488;-59
2022/09/22 04:37:54;;;;;;;7.72;6.05;;;7.60;99.90;;;;;;5063676;28;20040;-59
2022/09/22 04:40:21;;;;;;;9.95;6.68;;;7.60;99.90;;;;;;5045718;28;20052;-60
2022/09/22 04:42:47;;;;;;;7.93;6.20;;;7.60;99.90;;;;;;5061432;28;20074;-58
2022/09/22 04:45:13;;;;;;;12.40;6.40;;;7.60;99.90;;;;;;5050875;28;20051;-59
2022/09/22 04:47:40;;;;;;;6.85;6.15;;;7.50;99.90;;;;;;5055679;28;20044;-59
2022/09/22 04:50:06;;;;;;;9.30;6.05;;;7.50;99.90;;;;;;5054613;28;20033;-59
2022/09/22 04:52:31;;;;;;;9.13;6.55;;;7.50;99.90;;;;;;5052381;28;20044;-59
2022/09/22 04:54:57;;;;;;;7.43;6.65;;;7.70;99.90;;;;;;5059708;28;20544;-59
2022/09/22 04:57:23;;;;;;;10.93;7.45;;;7.50;99.90;;;;;;5047918;28;20549;-60
2022/09/22 04:59:49;;;;;;;8.27;6.80;;;7.50;99.90;;;;;;5063159;28;20048;-59
2022/09/22 05:02:14;;;;;;;9.73;7.18;;;7.50;99.90;;;;;;5047202;28;20049;-59
2022/09/22 05:04:40;;;;;;;9.63;7.80;;;7.50;99.90;;;;;;5059960;28;20257;-60
2022/09/22 05:07:05;;;;;;;9.30;7.82;;;7.70;99.90;;;;;;5052035;28;20045;-59
2022/09/22 05:09:32;;;;;;;9.07;7.00;;;7.50;99.90;;;;;;5056464;28;20086;-59
2022/09/22 05:11:58;;;;;;;9.20;7.20;;;7.70;99.90;;;;;;5054629;28;20395;-58
2022/09/22 05:14:24;;;;;;;9.93;7.25;;;7.50;99.90;;;;;;5051545;28;20155;-59
2022/09/22 05:16:49;;;;;;;8.70;7.07;;;7.60;99.90;;;;;;5057762;28;20500;-60
2022/09/22 05:19:16;;;;;;;8.50;7.13;;;7.40;99.90;;;;;;5046375;28;20067;-59
2022/09/22 05:21:42;;;;;;;7.70;6.95;;;7.70;99.90;;;;;;5062693;28;20119;-59
2022/09/22 05:24:08;;;;;;;8.18;6.93;;;7.40;99.90;;;;;;5047111;28;20052;-59
2022/09/22 05:26:34;;;;;;;10.02;7.85;;;7.50;99.90;;;;;;5059326;28;20499;-59
2022/09/22 05:29:00;;;;;;;15.07;8.50;;;7.50;99.90;;;;;;5051103;28;20418;-58
2022/09/22 05:31:26;;;;;;;10.25;7.95;;;7.40;99.90;;;;;;5053709;28;20041;-59
2022/09/22 05:33:51;;;;;;;9.60;8.43;;;7.50;99.90;;;;;;5055228;28;20045;-58
2022/09/22 05:36:17;;;;;;;16.45;10.27;;;7.40;99.90;;;;;;5050598;28;20056;-59
2022/09/22 05:38:42;;;;;;;15.13;10.38;;;7.50;99.90;;;;;;5059217;28;20041;-59
2022/09/22 05:41:08;;;;;;;14.52;11.18;;;7.60;99.90;;;;;;5047543;28;20194;-59
2022/09/22 05:43:34;;;;;;;12.48;10.90;;;7.40;99.90;;;;;;5061805;28;20246;-59
2022/09/22 05:45:59;;;;;;;12.50;11.20;;;7.40;99.90;;;;;;5045592;28;20044;-59
2022/09/22 05:48:25;;;;;;;13.20;11.15;;;7.40;99.90;;;;;;5057904;28;20078;-60
2022/09/22 05:50:51;;;;;;;14.90;11.88;;;7.60;99.90;;;;;;5050951;28;20040;-59
2022/09/22 05:53:16;;;;;;;14.48;12.18;;;7.60;99.90;;;;;;5054819;28;20051;-59
2022/09/22 05:55:42;;;;;;;14.98;12.88;;;7.40;99.90;;;;;;5054653;28;20047;-59
2022/09/22 05:58:11;;;;;;;18.08;13.75;;;7.40;99.90;;;;;;5051299;28;20414;-59
2022/09/22 06:00:38;;;;;;;14.90;13.40;;;7.50;99.90;;;;;;5059193;28;20494;-60
2022/09/22 06:03:04;;;;;;;18.27;13.90;;;7.70;99.90;;;;;;5045185;28;20429;-60
2022/09/22 06:05:29;;;;;;;14.70;13.18;;;7.70;99.90;;;;;;5061535;28;20526;-59
2022/09/22 06:08:02;;;;;;;16.38;13.82;;;7.70;99.90;;;;;;5047333;28;20070;-60
2022/09/22 06:10:29;;;;;;;14.95;13.43;;;7.80;99.90;;;;;;5057315;28;20041;-59
2022/09/22 06:12:59;;;;;;;16.15;13.32;;;7.90;99.90;;;;;;5051678;28;20461;-60
2022/09/22 06:15:26;;;;;;;15.70;13.88;;;7.90;99.90;;;;;;5051965;28;20519;-59
2022/09/22 06:17:52;;;;;;;16.13;13.30;;;8.00;99.90;;;;;;5056143;28;20049;-60
2022/09/22 06:20:17;;;;;;;15.48;13.88;;;8.10;99.90;;;;;;5046378;28;20083;-60
2022/09/22 06:22:43;;;;;;;15.05;13.55;;;8.10;99.90;;;;;;5059645;28;20106;-60
2022/09/22 06:25:10;;;;;;;14.95;13.27;;;8.20;99.90;;;;;;5044592;28;20442;-60
2022/09/22 06:27:36;;;;;;;15.20;13.02;;;8.30;99.90;;;;;;5060011;28;20041;-59
2022/09/22 06:30:03;;;;;;;14.40;12.80;;;8.30;99.90;;;;;;5048731;28;20043;-60
2022/09/22 06:32:28;;;;;;;16.55;12.75;;;8.30;99.90;;;;;;5054492;28;20045;-59
2022/09/22 06:34:54;;;;;;;15.10;13.15;;;8.40;99.90;;;;;;5053137;28;20044;-60
2022/09/22 06:37:21;;;;;;;14.65;13.13;;;8.50;99.90;;;;;;5050233;28;20040;-59
2022/09/22 06:39:46;;;;;;;15.15;13.32;;;8.60;99.90;;;;;;5056660;28;20243;-59
2022/09/22 06:42:16;;;;;;;14.93;12.63;;;8.70;99.90;;;;;;5047243;28;20072;-59
2022/09/22 06:44:43;;;;;;;15.98;12.43;;;8.70;99.90;;;;;;5060542;28;20054;-60
2022/09/22 06:47:10;;;;;;;13.60;12.18;;;8.80;99.90;;;;;;5045425;28;20040;-60
2022/09/22 06:49:35;;;;;;;17.17;12.60;;;8.80;99.90;;;;;;5058822;28;20125;-59
2022/09/22 06:52:01;;;;;;;13.63;11.82;;;8.90;99.90;;;;;;5049512;28;20123;-60
2022/09/22 06:54:27;;;;;;;16.48;12.43;;;9.00;99.90;;;;;;5052893;28;20041;-59
2022/09/22 06:56:52;;;;;;;14.93;12.43;;;9.10;99.90;;;;;;5053601;28;20036;-59
2022/09/22 06:59:18;;;;;;;14.73;12.07;;;9.10;99.90;;;;;;5050339;28;20072;-60
2022/09/22 07:01:44;;;;;;;15.05;11.55;;;9.20;99.90;;;;;;5057305;28;20069;-59
2022/09/22 07:04:11;;;;;;;14.50;11.38;;;9.30;99.90;;;;;;5045700;28;20041;-60
2022/09/22 07:06:38;;;;;;;13.13;11.77;;;9.30;99.90;;;;;;5061741;28;20044;-60
2022/09/22 07:09:04;;;;;;;13.07;11.32;;;9.40;99.90;;;;;;5046080;28;20047;-59
2022/09/22 07:11:30;;;;;;;13.02;11.07;;;9.50;99.90;;;;;;5058682;28;20083;-60
2022/09/22 07:13:57;;;;;;;14.00;11.07;;;9.50;99.90;;;;;;5054845;28;20127;-60
2022/09/22 07:16:25;;;;;;;13.90;11.63;;;9.60;99.90;;;;;;5056869;28;20049;-60
2022/09/22 07:18:53;;;;;;;15.23;11.05;;;9.70;99.90;;;;;;5060293;28;20415;-59
2022/09/22 07:21:34;;;;;;;11.45;10.13;;;9.70;99.90;;;;;;5054665;28;20052;-60
2022/09/22 07:23:59;;;;;;;14.65;10.75;;;9.80;99.90;;;;;;5066637;28;20749;-59
2022/09/22 07:26:29;;;;;;;12.43;10.20;;;9.90;99.90;;;;;;5048881;28;20041;-61
2022/09/22 07:28:58;;;;;;;11.93;10.13;;;9.90;99.90;;;;;;5063871;28;20063;-61
2022/09/22 07:31:25;;;;;;;15.13;9.50;;;10.00;99.90;;;;;;5055187;28;20071;-60
2022/09/22 07:33:53;;;;;;;14.02;9.85;;;10.30;99.90;;;;;;5058850;28;20076;-64
2022/09/22 07:36:21;;;;;;;11.70;9.23;;;10.30;99.90;;;;;;5047797;28;20052;-62
2022/09/22 07:38:50;;;;;;;11.40;9.23;;;10.50;99.90;;;;;;5052297;28;20103;-62
2022/09/22 07:41:23;;;;;;;12.82;9.25;;;10.50;99.90;;;;;;5052402;28;20395;-63
2022/09/22 07:43:51;;;;;;;12.02;9.45;;;10.50;99.90;;;;;;5066154;28;20044;-63
2022/09/22 07:46:17;;;;;;;10.05;8.63;;;10.60;99.90;;;;;;5050744;28;20121;-63
2022/09/22 07:48:46;;;;;;;10.27;7.50;;;10.70;99.90;;;;;;5061846;28;20037;-63
2022/09/22 07:51:19;;;;;;;10.00;7.97;;;10.70;99.90;;;;;;5056313;28;20080;-62
2022/09/22 07:54:01;;;;;;;10.18;7.85;;;10.80;99.90;;;;;;5055837;28;20124;-56
2022/09/22 07:56:27;;;;;;;9.93;7.20;;;10.90;99.90;;;;;;5063631;28;20052;-56
2022/09/22 07:58:54;;;;;;;10.15;7.32;;;11.10;99.90;;;;;;5050518;28;20384;-55
2022/09/22 08:01:25;;;;;;;10.70;7.40;;;11.20;99.90;;;;;;5064900;28;20054;-50
2022/09/22 08:03:51;;;;;;;12.80;7.22;;;11.30;99.90;;;;;;5052191;28;20032;-51
2022/09/22 08:06:18;;;;;;;7.88;7.07;;;11.30;99.90;;;;;;5061360;28;20051;-56
2022/09/22 08:08:52;;;;;;;11.20;6.55;;;11.40;99.90;;;;;;5056764;28;20044;-52
2022/09/22 08:11:21;;;;;;;9.85;6.93;;;11.40;99.90;;;;;;5056242;28;20387;-54
2022/09/22 08:13:52;;;;;;;11.48;7.20;;;11.50;99.90;;;;;;5059819;28;20518;-52
2022/09/22 08:16:19;;;;;;;12.10;6.90;;;11.60;99.90;;;;;;5051282;28;20419;-53
2022/09/22 08:18:49;;;;;;;7.82;6.95;;;11.80;99.90;;;;;;5063996;28;20036;-57
2022/09/22 08:21:18;;;;;;;12.63;7.68;;;11.90;99.90;;;;;;5050077;28;20063;-63
2022/09/22 08:23:44;;;;;;;9.88;6.70;;;12.10;99.90;;;;;;5058201;28;20083;-62
2022/09/22 08:26:10;;;;;;;8.07;6.63;;;12.10;99.90;;;;;;5053288;28;20045;-63
2022/09/22 08:28:36;;;;;;;9.50;6.50;;;12.10;99.90;;;;;;5055081;28;20114;-62
2022/09/22 08:31:02;;;;;;;8.35;6.35;;;12.20;99.90;;;;;;5054297;28;20054;-63
2022/09/22 08:33:31;;;;;;;8.10;6.75;;;12.30;99.90;;;;;;5051033;28;20059;-63
2022/09/22 08:36:02;;;;;;;8.43;6.38;;;12.40;99.90;;;;;;5060821;28;20531;-62
2022/09/22 08:38:29;;;;;;;10.20;6.50;;;12.50;99.90;;;;;;5046800;28;20075;-62
2022/09/22 08:41:04;;;;;;;9.70;6.55;;;12.60;99.90;;;;;;5061648;28;20144;-61
2022/09/22 08:43:31;;;;;;;11.30;6.40;;;12.70;99.90;;;;;;5050395;28;20102;-63
2022/09/22 08:45:57;;;;;;;8.82;5.97;;;12.90;99.90;;;;;;5055981;28;20041;-61
2022/09/22 08:54:05;;;;;;;6.93;5.20;;;13.20;99.90;;;;;;5048399;28;20480;-61
2022/09/22 08:56:45;;;;;;;10.80;5.50;;;13.30;99.90;;;;;;5059470;28;20115;-62
2022/09/22 08:59:22;;;;;;;8.80;5.10;;;13.80;99.90;;;;;;5054079;28;20032;-62
2022/09/22 09:02:25;;;;;;;7.50;5.15;;;14.40;99.90;;;;;;5051814;28;20411;-62
2022/09/22 09:04:54;;;;;;;8.05;4.80;;;14.60;99.90;;;;;;5047229;28;20044;-62
2022/09/22 09:07:30;;;;;;;5.60;4.20;;;15.10;99.90;;;;;;5060498;28;20115;-62
2022/09/22 09:10:21;;;;;;;7.18;4.05;;;15.00;99.90;;;;;;5052882;28;20049;-61
2022/09/22 09:12:52;;;;;;;6.13;3.92;;;15.40;99.90;;;;;;5050872;28;20547;-62
2022/09/22 09:15:27;;;;;;;9.02;4.00;;;15.60;99.90;;;;;;5060548;28;20058;-62
2022/09/22 09:17:57;;;;;;;5.75;3.60;;;15.90;99.90;;;;;;5046394;28;20574;-62
2022/09/22 09:20:30;;;;;;;6.78;4.00;;;15.90;99.90;;;;;;5060429;28;20150;-62
2022/09/22 09:22:58;;;;;;;6.60;3.80;;;15.90;99.90;;;;;;5051617;28;20049;-62
2022/09/22 09:25:35;;;;;;;7.57;3.70;;;16.10;99.90;;;;;;5054990;28;20613;-62
2022/09/22 09:28:11;;;;;;;6.10;3.60;;;16.20;99.90;;;;;;5057165;28;20048;-63
2022/09/22 09:31:01;;;;;;;6.60;3.40;;;16.30;99.90;;;;;;5047767;28;20040;-61
2022/09/22 09:33:44;;;;;;;8.60;3.65;;;15.90;99.90;;;;;;5047852;28;20048;-64
2022/09/22 09:36:14;;;;;;;7.63;3.50;;;16.70;99.90;;;;;;5055721;28;20123;-62
2022/09/22 09:38:53;;;;;;;6.18;3.20;;;16.70;99.90;;;;;;5054891;28;20051;-63
2022/09/22 09:41:34;;;;;;;6.35;3.65;;;16.90;99.90;;;;;;5049045;28;20049;-62
2022/09/22 09:44:01;;;;;;;6.88;3.60;;;16.50;99.90;;;;;;5062012;28;20045;-62
2022/09/22 09:46:52;;;;;;;4.95;3.63;;;17.10;99.90;;;;;;5045324;28;20080;-63
2022/09/22 09:49:22;;;;;;;6.20;3.20;;;16.50;99.90;;;;;;5055187;28;20443;-62
2022/09/22 09:51:54;;;;;;;9.25;3.53;;;16.70;99.90;;;;;;5054860;28;20453;-62
2022/09/22 09:54:20;;;;;;;5.80;3.50;;;17.10;99.90;;;;;;5049911;28;20586;-62
2022/09/22 09:57:15;;;;;;;7.10;3.40;;;17.10;99.90;;;;;;5059072;28;20158;-64
2022/09/22 10:02:28;;;;;;;6.72;3.20;;;17.10;99.90;;;;;;5054557;28;20111;-62
2022/09/22 10:05:00;;;;;;;8.48;3.85;;;17.30;99.90;;;;;;5054473;28;20056;-62
2022/09/22 10:07:44;;;;;;;5.80;3.08;;;17.30;99.90;;;;;;5049992;28;20052;-64
2022/09/22 10:10:43;;;;;;;7.03;3.50;;;17.30;99.90;;;;;;5061444;28;20499;-63
2022/09/22 10:13:08;;;;;;;5.13;2.97;;;17.60;99.90;;;;;;5027347;28;20064;-63
2022/09/22 10:15:39;;;;;;;6.70;3.05;;;17.20;99.90;;;;;;5054235;28;20057;-62
2022/09/22 10:18:23;;;;;;;7.13;2.50;;;17.40;99.90;;;;;;5055426;28;20101;-62
2022/09/22 10:21:15;;;;;;;8.10;2.70;;;17.60;99.90;;;;;;5047904;28;20053;-62
2022/09/22 10:23:43;;;;;;;7.05;3.03;;;17.50;99.90;;;;;;5044220;28;20122;-62
2022/09/22 10:26:15;;;;;;;5.82;3.08;;;17.70;99.90;;;;;;5057536;28;20053;-64
2022/09/22 10:28:41;;;;;;;5.10;3.00;;;17.60;99.90;;;;;;5052049;28;20048;-62
2022/09/22 10:31:18;;;;;;;6.20;2.67;;;17.70;99.90;;;;;;5051957;28;20060;-61
2022/09/22 10:34:05;;;;;;;6.00;2.70;;;17.90;99.90;;;;;;5057784;28;20035;-62
2022/09/22 10:36:32;;;;;;;4.05;2.08;;;17.70;99.90;;;;;;5044874;28;20049;-62
2022/09/22 10:38:58;;;;;;;5.57;2.60;;;17.60;99.90;;;;;;5061021;28;20040;-62
2022/09/22 10:41:30;;;;;;;7.72;3.13;;;17.60;99.90;;;;;;5047298;28;20336;-62
2022/09/22 10:44:13;;;;;;;5.13;2.90;;;17.70;99.90;;;;;;5055730;28;20116;-64
2022/09/22 10:46:54;;;;;;;6.80;2.83;;;17.80;99.90;;;;;;5053679;28;20132;-62
2022/09/22 10:50:04;;;;;;;5.30;2.33;;;18.00;99.90;;;;;;5046982;28;20423;-63
2022/09/22 10:52:45;;;;;;;3.80;2.30;;;18.10;99.90;;;;;;5032824;28;20049;-64
2022/09/22 10:55:33;;;;;;;4.88;2.67;;;18.30;99.90;;;;;;5052737;28;20044;-63
2022/09/22 10:58:07;;;;;;;6.75;2.78;;;18.50;99.90;;;;;;5058526;28;20391;-62
2022/09/22 11:00:40;;;;;;;6.72;2.90;;;18.30;99.90;;;;;;5044225;28;20049;-62
2022/09/22 11:03:21;;;;;;;5.05;3.33;;;17.90;99.90;;;;;;5060183;28;20098;-63
2022/09/22 11:12:18;;;;;;;5.53;2.92;;;18.10;99.90;;;;;;5048209;28;20518;-62
2022/09/22 11:15:02;;;;;;;3.75;2.65;;;18.40;99.90;;;;;;5053680;28;20418;-62
2022/09/22 11:17:48;;;;;;;5.45;3.00;;;17.80;99.90;;;;;;5055865;28;20056;-63
2022/09/22 11:20:32;;;;;;;7.88;3.45;;;18.20;99.90;;;;;;5044223;28;20056;-64
2022/09/22 11:23:19;;;;;;;8.97;3.80;;;18.10;99.90;;;;;;5058117;28;20419;-62
2022/09/22 11:26:19;;;;;;;7.57;3.40;;;18.10;99.90;;;;;;5052028;28;20048;-64
2022/09/22 11:28:54;;;;;;;5.43;3.15;;;18.30;99.90;;;;;;5046288;28;20396;-62
2022/09/22 11:31:36;;;;;;;7.22;3.15;;;18.10;99.90;;;;;;5043705;28;20095;-64
2022/09/22 11:34:39;;;;;;;7.20;4.32;;;18.50;99.90;;;;;;5057016;28;20064;-62
2022/09/22 11:37:24;;;;;;;8.05;4.60;;;18.30;99.90;;;;;;5056862;28;20052;-62
2022/09/22 11:39:59;;;;;;;5.95;4.13;;;17.90;99.90;;;;;;5044980;28;20091;-62
2022/09/22 11:42:41;;;;;;;10.52;4.15;;;17.90;99.90;;;;;;5045781;28;20427;-62
2022/09/22 11:45:28;;;;;;;6.70;4.22;;;17.90;99.90;;;;;;5055246;28;20407;-63
2022/09/22 11:48:09;;;;;;;10.32;4.88;;;18.10;99.90;;;;;;5054676;28;20048;-63
2022/09/22 11:50:47;;;;;;;6.60;4.50;;;18.10;99.90;;;;;;5046062;28;20124;-62
2022/09/22 11:53:31;;;;;;;8.20;4.15;;;18.10;99.90;;;;;;5044931;28;20048;-61
2022/09/22 11:56:41;;;;;;;6.25;3.80;;;18.50;99.90;;;;;;5055749;28;20072;-63
2022/09/22 11:59:31;;;;;;;5.35;3.13;;;18.70;99.90;;;;;;5061443;28;20048;-62
2022/09/22 12:02:04;;;;;;;6.60;3.95;;;18.70;99.90;;;;;;5047653;28;20427;-62
2022/09/22 12:04:41;;;;;;;6.93;3.88;;;18.70;99.90;;;;;;5061087;28;20288;-62
2022/09/22 12:07:15;;;;;;;6.53;3.72;;;17.80;99.90;;;;;;5054754;28;20052;-62
2022/09/22 12:09:46;;;;;;;7.53;4.03;;;17.70;99.90;;;;;;5054467;28;20462;-62
2022/09/22 12:12:18;;;;;;;6.13;3.80;;;17.80;99.90;;;;;;5060226;28;20036;-62
2022/09/22 12:14:55;;;;;;;5.85;3.47;;;17.80;99.90;;;;;;5047160;28;20073;-64
2022/09/22 12:17:28;;;;;;;7.95;3.90;;;18.40;99.90;;;;;;5047916;28;20048;-62
2022/09/22 12:20:15;;;;;;;7.47;4.05;;;18.50;99.90;;;;;;5060050;28;20407;-62
2022/09/22 12:23:01;;;;;;;6.35;3.22;;;18.60;99.90;;;;;;5056940;28;20041;-63
2022/09/22 12:25:49;;;;;;;6.53;3.10;;;18.30;99.90;;;;;;5048162;28;20154;-62
2022/09/22 12:28:29;;;;;;;5.13;3.35;;;18.20;99.90;;;;;;5048196;28;20411;-62
2022/09/22 12:31:06;;;;;;;5.10;3.70;;;17.90;99.90;;;;;;5058530;28;20059;-62
2022/09/22 12:33:34;;;;;;;7.38;3.38;;;17.80;99.90;;;;;;5055611;28;20041;-62
2022/09/22 12:36:01;;;;;;;7.32;3.92;;;17.80;99.90;;;;;;5052980;28;20418;-62
2022/09/22 12:38:29;;;;;;;6.97;3.55;;;17.80;99.90;;;;;;5060768;28;20047;-63
2022/09/22 12:40:58;;;;;;;8.07;3.70;;;18.20;99.90;;;;;;5048056;28;20049;-63
2022/09/22 12:43:25;;;;;;;6.75;3.38;;;18.50;99.90;;;;;;5063535;28;20183;-62
2022/09/22 12:45:53;;;;;;;5.50;3.03;;;18.10;99.90;;;;;;5048077;28;20040;-63
2022/09/22 12:48:28;;;;;;;4.82;3.00;;;18.00;99.90;;;;;;5059267;28;20041;-63
2022/09/22 12:51:30;;;;;;;5.55;2.95;;;18.00;99.90;;;;;;5054162;28;20040;-63
2022/09/22 12:54:20;;;;;;;7.00;3.00;;;18.00;99.90;;;;;;5048452;28;20049;-63
2022/09/22 12:56:56;;;;;;;6.28;2.70;;;18.00;99.90;;;;;;5049010;28;20041;-62
2022/09/22 12:59:56;;;;;;;7.43;3.30;;;18.00;99.90;;;;;;5058088;28;20053;-63
2022/09/22 13:02:38;;;;;;;5.63;3.47;;;17.90;99.90;;;;;;4998682;28;20132;-62
2022/09/22 13:05:24;;;;;;;7.80;4.15;;;17.90;99.90;;;;;;5044618;28;20230;-62
2022/09/22 13:07:57;;;;;;;7.38;3.88;;;17.80;99.90;;;;;;5060114;28;20206;-63
2022/09/22 13:10:26;;;;;;;6.90;3.22;;;18.10;99.90;;;;;;5050035;28;20098;-62
2022/09/22 13:13:03;;;;;;;5.90;3.35;;;18.50;99.90;;;;;;5054835;28;20119;-63
2022/09/22 13:15:32;;;;;;;5.95;3.45;;;18.70;99.90;;;;;;5057048;28;20505;-62
2022/09/22 13:17:57;;;;;;;4.65;3.10;;;18.60;99.90;;;;;;5048691;28;20447;-62
2022/09/22 13:20:31;;;;;;;6.95;3.40;;;18.80;99.90;;;;;;5061976;28;20044;-62
2022/09/22 13:23:10;;;;;;;7.22;3.20;;;18.20;99.90;;;;;;5048207;28;20051;-62
2022/09/22 13:25:37;;;;;;;4.70;3.10;;;18.30;99.90;;;;;;5057224;28;20075;-62
2022/09/22 13:28:07;;;;;;;6.00;3.28;;;18.20;99.90;;;;;;5052721;28;20084;-62